sensor_id;sensor_type;location;lat;lon;timestamp;P1;durP1;ratioP1;P2;durP2;ratioP2
80411;SDS011;69749;42.684;23.360;2023-07-24T00:00:12;14.50;;;7.82;;
80411;SDS011;69749;42.684;23.360;2023-07-24T00:02:38;12.77;;;7.65;;
80411;SDS011;69749;42.684;23.360;2023-07-24T00:05:04;12.07;;;7.82;;
80411;SDS011;69749;42.684;23.360;2023-07-24T00:07:29;14.90;;;7.80;;
80411;SDS011;69749;42.684;23.360;2023-07-24T00:09:55;11.15;;;7.32;;
80411;SDS011;69749;42.684;23.360;2023-07-24T00:12:20;12.82;;;7.85;;
80411;SDS011;69749;42.684;23.360;2023-07-24T00:14:46;13.77;;;7.95;;
80411;SDS011;69749;42.684;23.360;2023-07-24T00:17:12;11.00;;;7.60;;
80411;SDS011;69749;42.684;23.360;2023-07-24T00:19:38;14.05;;;6.72;;
80411;SDS011;69749;42.684;23.360;2023-07-24T00:22:03;13.35;;;8.48;;
80411;SDS011;69749;42.684;23.360;2023-07-24T00:24:29;14.02;;;7.88;;
80411;SDS011;69749;42.684;23.360;2023-07-24T00:26:56;14.25;;;8.35;;
80411;SDS011;69749;42.684;23.360;2023-07-24T00:29:21;12.93;;;7.97;;
80411;SDS011;69749;42.684;23.360;2023-07-24T00:31:47;11.05;;;6.97;;
80411;SDS011;69749;42.684;23.360;2023-07-24T00:34:13;14.57;;;8.40;;
80411;SDS011;69749;42.684;23.360;2023-07-24T00:36:38;13.43;;;7.35;;
80411;SDS011;69749;42.684;23.360;2023-07-24T00:39:03;13.23;;;7.68;;
80411;SDS011;69749;42.684;23.360;2023-07-24T00:41:29;12.55;;;7.50;;
80411;SDS011;69749;42.684;23.360;2023-07-24T00:43:54;12.85;;;7.78;;
80411;SDS011;69749;42.684;23.360;2023-07-24T00:46:20;11.73;;;7.72;;
80411;SDS011;69749;42.684;23.360;2023-07-24T00:48:45;12.27;;;7.60;;
80411;SDS011;69749;42.684;23.360;2023-07-24T00:51:11;14.32;;;7.03;;
80411;SDS011;69749;42.684;23.360;2023-07-24T00:53:36;13.15;;;7.82;;
80411;SDS011;69749;42.684;23.360;2023-07-24T00:56:02;13.32;;;8.05;;
80411;SDS011;69749;42.684;23.360;2023-07-24T00:58:28;9.93;;;7.28;;
80411;SDS011;69749;42.684;23.360;2023-07-24T01:00:53;13.57;;;7.63;;
80411;SDS011;69749;42.684;23.360;2023-07-24T01:03:19;11.80;;;7.53;;
80411;SDS011;69749;42.684;23.360;2023-07-24T01:05:46;13.23;;;7.80;;
80411;SDS011;69749;42.684;23.360;2023-07-24T01:08:11;16.23;;;7.80;;
80411;SDS011;69749;42.684;23.360;2023-07-24T01:10:37;11.40;;;7.38;;
80411;SDS011;69749;42.684;23.360;2023-07-24T01:13:07;13.02;;;7.47;;
80411;SDS011;69749;42.684;23.360;2023-07-24T01:15:41;13.55;;;8.05;;
80411;SDS011;69749;42.684;23.360;2023-07-24T01:18:15;10.95;;;7.85;;
80411;SDS011;69749;42.684;23.360;2023-07-24T01:20:50;13.00;;;7.50;;
80411;SDS011;69749;42.684;23.360;2023-07-24T01:26:00;11.48;;;7.45;;
80411;SDS011;69749;42.684;23.360;2023-07-24T01:28:29;13.98;;;8.30;;
80411;SDS011;69749;42.684;23.360;2023-07-24T01:30:54;11.88;;;7.00;;
80411;SDS011;69749;42.684;23.360;2023-07-24T01:33:21;12.02;;;7.38;;
80411;SDS011;69749;42.684;23.360;2023-07-24T01:35:51;12.13;;;7.18;;
80411;SDS011;69749;42.684;23.360;2023-07-24T01:38:25;10.95;;;7.20;;
80411;SDS011;69749;42.684;23.360;2023-07-24T01:40:55;12.40;;;8.07;;
80411;SDS011;69749;42.684;23.360;2023-07-24T01:43:22;12.23;;;7.65;;
80411;SDS011;69749;42.684;23.360;2023-07-24T01:45:48;11.40;;;7.63;;
80411;SDS011;69749;42.684;23.360;2023-07-24T01:48:13;12.63;;;7.68;;
80411;SDS011;69749;42.684;23.360;2023-07-24T01:50:38;10.52;;;6.88;;
80411;SDS011;69749;42.684;23.360;2023-07-24T01:53:04;10.07;;;6.78;;
80411;SDS011;69749;42.684;23.360;2023-07-24T01:55:29;12.40;;;7.47;;
80411;SDS011;69749;42.684;23.360;2023-07-24T01:57:55;11.85;;;7.35;;
80411;SDS011;69749;42.684;23.360;2023-07-24T02:00:20;12.65;;;7.72;;
80411;SDS011;69749;42.684;23.360;2023-07-24T02:02:45;11.90;;;7.10;;
80411;SDS011;69749;42.684;23.360;2023-07-24T02:05:11;13.23;;;8.43;;
80411;SDS011;69749;42.684;23.360;2023-07-24T02:07:37;12.05;;;7.47;;
80411;SDS011;69749;42.684;23.360;2023-07-24T02:10:02;15.10;;;8.05;;
80411;SDS011;69749;42.684;23.360;2023-07-24T02:12:28;13.95;;;8.70;;
80411;SDS011;69749;42.684;23.360;2023-07-24T02:14:53;11.63;;;7.72;;
80411;SDS011;69749;42.684;23.360;2023-07-24T02:17:20;13.07;;;7.55;;
80411;SDS011;69749;42.684;23.360;2023-07-24T02:19:46;13.15;;;8.18;;
80411;SDS011;69749;42.684;23.360;2023-07-24T02:22:11;13.90;;;8.05;;
80411;SDS011;69749;42.684;23.360;2023-07-24T02:24:37;11.82;;;7.43;;
80411;SDS011;69749;42.684;23.360;2023-07-24T02:27:02;11.52;;;7.38;;
80411;SDS011;69749;42.684;23.360;2023-07-24T02:29:29;10.25;;;6.57;;
80411;SDS011;69749;42.684;23.360;2023-07-24T02:31:54;11.52;;;7.18;;
80411;SDS011;69749;42.684;23.360;2023-07-24T02:34:20;11.25;;;7.22;;
80411;SDS011;69749;42.684;23.360;2023-07-24T02:36:50;11.80;;;7.18;;
80411;SDS011;69749;42.684;23.360;2023-07-24T02:39:15;12.38;;;7.00;;
80411;SDS011;69749;42.684;23.360;2023-07-24T02:41:41;10.70;;;7.20;;
80411;SDS011;69749;42.684;23.360;2023-07-24T02:44:06;10.82;;;6.80;;
80411;SDS011;69749;42.684;23.360;2023-07-24T02:46:32;10.98;;;6.65;;
80411;SDS011;69749;42.684;23.360;2023-07-24T02:48:57;10.75;;;7.18;;
80411;SDS011;69749;42.684;23.360;2023-07-24T02:51:23;10.77;;;7.53;;
80411;SDS011;69749;42.684;23.360;2023-07-24T02:53:48;13.02;;;6.97;;
80411;SDS011;69749;42.684;23.360;2023-07-24T02:56:13;11.35;;;7.25;;
80411;SDS011;69749;42.684;23.360;2023-07-24T02:58:39;12.88;;;7.50;;
80411;SDS011;69749;42.684;23.360;2023-07-24T03:01:05;11.55;;;7.35;;
80411;SDS011;69749;42.684;23.360;2023-07-24T03:03:32;10.60;;;7.40;;
80411;SDS011;69749;42.684;23.360;2023-07-24T03:05:58;11.75;;;7.53;;
80411;SDS011;69749;42.684;23.360;2023-07-24T03:08:23;13.10;;;7.93;;
80411;SDS011;69749;42.684;23.360;2023-07-24T03:10:49;11.30;;;7.55;;
80411;SDS011;69749;42.684;23.360;2023-07-24T03:13:14;11.35;;;7.63;;
80411;SDS011;69749;42.684;23.360;2023-07-24T03:15:40;12.32;;;8.32;;
80411;SDS011;69749;42.684;23.360;2023-07-24T03:18:05;11.73;;;7.10;;
80411;SDS011;69749;42.684;23.360;2023-07-24T03:20:30;13.43;;;8.40;;
80411;SDS011;69749;42.684;23.360;2023-07-24T03:22:56;13.25;;;7.70;;
80411;SDS011;69749;42.684;23.360;2023-07-24T03:25:21;12.30;;;7.60;;
80411;SDS011;69749;42.684;23.360;2023-07-24T03:27:47;11.27;;;7.72;;
80411;SDS011;69749;42.684;23.360;2023-07-24T03:30:12;13.45;;;7.80;;
80411;SDS011;69749;42.684;23.360;2023-07-24T03:32:38;12.77;;;8.15;;
80411;SDS011;69749;42.684;23.360;2023-07-24T03:35:04;11.18;;;7.00;;
80411;SDS011;69749;42.684;23.360;2023-07-24T03:37:30;12.82;;;7.25;;
80411;SDS011;69749;42.684;23.360;2023-07-24T03:39:56;12.80;;;8.35;;
80411;SDS011;69749;42.684;23.360;2023-07-24T03:42:28;13.15;;;8.85;;
80411;SDS011;69749;42.684;23.360;2023-07-24T03:44:54;15.73;;;9.07;;
80411;SDS011;69749;42.684;23.360;2023-07-24T03:47:21;15.13;;;8.70;;
80411;SDS011;69749;42.684;23.360;2023-07-24T03:49:47;15.00;;;9.18;;
80411;SDS011;69749;42.684;23.360;2023-07-24T03:52:12;18.75;;;10.45;;
80411;SDS011;69749;42.684;23.360;2023-07-24T03:54:37;18.30;;;10.77;;
80411;SDS011;69749;42.684;23.360;2023-07-24T03:57:03;17.95;;;9.27;;
80411;SDS011;69749;42.684;23.360;2023-07-24T03:59:29;14.77;;;8.90;;
80411;SDS011;69749;42.684;23.360;2023-07-24T04:01:55;17.67;;;9.88;;
80411;SDS011;69749;42.684;23.360;2023-07-24T04:04:21;15.10;;;9.73;;
80411;SDS011;69749;42.684;23.360;2023-07-24T04:06:47;18.05;;;9.82;;
80411;SDS011;69749;42.684;23.360;2023-07-24T04:09:12;15.05;;;9.10;;
80411;SDS011;69749;42.684;23.360;2023-07-24T04:11:41;13.07;;;8.82;;
80411;SDS011;69749;42.684;23.360;2023-07-24T04:14:07;16.48;;;8.60;;
80411;SDS011;69749;42.684;23.360;2023-07-24T04:16:33;14.85;;;8.30;;
80411;SDS011;69749;42.684;23.360;2023-07-24T04:18:58;13.98;;;8.68;;
80411;SDS011;69749;42.684;23.360;2023-07-24T04:21:24;16.90;;;9.02;;
80411;SDS011;69749;42.684;23.360;2023-07-24T04:23:49;16.25;;;8.98;;
80411;SDS011;69749;42.684;23.360;2023-07-24T04:26:14;12.73;;;8.23;;
80411;SDS011;69749;42.684;23.360;2023-07-24T04:28:40;16.73;;;9.00;;
80411;SDS011;69749;42.684;23.360;2023-07-24T04:31:05;13.90;;;8.30;;
80411;SDS011;69749;42.684;23.360;2023-07-24T04:33:31;16.63;;;9.77;;
80411;SDS011;69749;42.684;23.360;2023-07-24T04:35:56;16.98;;;9.45;;
80411;SDS011;69749;42.684;23.360;2023-07-24T04:38:22;19.55;;;9.23;;
80411;SDS011;69749;42.684;23.360;2023-07-24T04:40:47;18.70;;;10.27;;
80411;SDS011;69749;42.684;23.360;2023-07-24T04:43:12;18.23;;;10.02;;
80411;SDS011;69749;42.684;23.360;2023-07-24T04:45:38;17.45;;;9.95;;
80411;SDS011;69749;42.684;23.360;2023-07-24T04:48:04;18.40;;;9.80;;
80411;SDS011;69749;42.684;23.360;2023-07-24T04:50:29;17.60;;;10.13;;
80411;SDS011;69749;42.684;23.360;2023-07-24T04:52:55;16.35;;;9.90;;
80411;SDS011;69749;42.684;23.360;2023-07-24T04:55:21;17.95;;;9.50;;
80411;SDS011;69749;42.684;23.360;2023-07-24T05:00:53;15.70;;;9.43;;
80411;SDS011;69749;42.684;23.360;2023-07-24T05:03:18;19.02;;;9.15;;
80411;SDS011;69749;42.684;23.360;2023-07-24T05:05:47;18.52;;;9.25;;
80411;SDS011;69749;42.684;23.360;2023-07-24T05:08:13;13.98;;;9.10;;
80411;SDS011;69749;42.684;23.360;2023-07-24T05:10:38;15.77;;;9.02;;
80411;SDS011;69749;42.684;23.360;2023-07-24T05:13:04;15.85;;;9.20;;
80411;SDS011;69749;42.684;23.360;2023-07-24T05:15:29;14.63;;;8.90;;
80411;SDS011;69749;42.684;23.360;2023-07-24T05:17:54;13.50;;;8.65;;
80411;SDS011;69749;42.684;23.360;2023-07-24T05:20:20;16.80;;;9.02;;
80411;SDS011;69749;42.684;23.360;2023-07-24T05:22:45;15.02;;;9.52;;
80411;SDS011;69749;42.684;23.360;2023-07-24T05:25:11;16.90;;;10.23;;
80411;SDS011;69749;42.684;23.360;2023-07-24T05:27:36;13.40;;;8.65;;
80411;SDS011;69749;42.684;23.360;2023-07-24T05:30:02;17.63;;;9.40;;
80411;SDS011;69749;42.684;23.360;2023-07-24T05:32:28;14.18;;;9.38;;
80411;SDS011;69749;42.684;23.360;2023-07-24T05:34:54;13.77;;;9.02;;
80411;SDS011;69749;42.684;23.360;2023-07-24T05:37:19;13.93;;;8.48;;
80411;SDS011;69749;42.684;23.360;2023-07-24T05:39:44;10.75;;;6.93;;
80411;SDS011;69749;42.684;23.360;2023-07-24T05:42:10;11.73;;;7.80;;
80411;SDS011;69749;42.684;23.360;2023-07-24T05:44:35;12.65;;;7.32;;
80411;SDS011;69749;42.684;23.360;2023-07-24T05:47:02;10.85;;;7.00;;
80411;SDS011;69749;42.684;23.360;2023-07-24T05:49:28;12.68;;;7.93;;
80411;SDS011;69749;42.684;23.360;2023-07-24T05:51:53;12.35;;;7.85;;
80411;SDS011;69749;42.684;23.360;2023-07-24T05:54:19;12.93;;;7.57;;
80411;SDS011;69749;42.684;23.360;2023-07-24T05:56:44;11.00;;;7.93;;
80411;SDS011;69749;42.684;23.360;2023-07-24T05:59:10;14.93;;;8.73;;
80411;SDS011;69749;42.684;23.360;2023-07-24T06:01:35;12.50;;;7.88;;
80411;SDS011;69749;42.684;23.360;2023-07-24T06:04:00;13.82;;;8.10;;
80411;SDS011;69749;42.684;23.360;2023-07-24T06:06:26;14.40;;;8.25;;
80411;SDS011;69749;42.684;23.360;2023-07-24T06:08:53;13.20;;;8.10;;
80411;SDS011;69749;42.684;23.360;2023-07-24T06:11:18;11.68;;;7.82;;
80411;SDS011;69749;42.684;23.360;2023-07-24T06:13:43;11.93;;;7.32;;
80411;SDS011;69749;42.684;23.360;2023-07-24T06:16:09;17.67;;;7.93;;
80411;SDS011;69749;42.684;23.360;2023-07-24T06:18:35;11.43;;;7.43;;
80411;SDS011;69749;42.684;23.360;2023-07-24T06:21:00;11.57;;;7.07;;
80411;SDS011;69749;42.684;23.360;2023-07-24T06:23:26;11.20;;;8.32;;
80411;SDS011;69749;42.684;23.360;2023-07-24T06:25:51;13.52;;;7.85;;
80411;SDS011;69749;42.684;23.360;2023-07-24T06:28:18;10.93;;;8.13;;
80411;SDS011;69749;42.684;23.360;2023-07-24T06:30:43;12.20;;;8.63;;
80411;SDS011;69749;42.684;23.360;2023-07-24T06:33:08;13.00;;;8.45;;
80411;SDS011;69749;42.684;23.360;2023-07-24T06:35:34;10.52;;;8.13;;
80411;SDS011;69749;42.684;23.360;2023-07-24T06:38:00;12.65;;;8.35;;
80411;SDS011;69749;42.684;23.360;2023-07-24T06:40:25;12.32;;;8.82;;
80411;SDS011;69749;42.684;23.360;2023-07-24T06:42:51;11.73;;;9.10;;
80411;SDS011;69749;42.684;23.360;2023-07-24T06:45:17;11.55;;;8.18;;
80411;SDS011;69749;42.684;23.360;2023-07-24T06:47:43;9.98;;;7.72;;
80411;SDS011;69749;42.684;23.360;2023-07-24T06:50:08;9.77;;;7.43;;
80411;SDS011;69749;42.684;23.360;2023-07-24T06:52:34;8.82;;;7.07;;
80411;SDS011;69749;42.684;23.360;2023-07-24T06:57:25;8.50;;;7.38;;
80411;SDS011;69749;42.684;23.360;2023-07-24T07:02:16;10.50;;;7.65;;
80411;SDS011;69749;42.684;23.360;2023-07-24T07:04:41;9.00;;;7.50;;
80411;SDS011;69749;42.684;23.360;2023-07-24T07:07:07;11.38;;;7.95;;
80411;SDS011;69749;42.684;23.360;2023-07-24T07:09:32;12.55;;;8.10;;
80411;SDS011;69749;42.684;23.360;2023-07-24T07:11:58;12.82;;;7.38;;
80411;SDS011;69749;42.684;23.360;2023-07-24T07:14:23;10.98;;;6.93;;
80411;SDS011;69749;42.684;23.360;2023-07-24T07:16:49;11.30;;;7.70;;
80411;SDS011;69749;42.684;23.360;2023-07-24T07:19:14;12.68;;;7.53;;
80411;SDS011;69749;42.684;23.360;2023-07-24T07:21:40;9.98;;;7.18;;
80411;SDS011;69749;42.684;23.360;2023-07-24T07:24:05;8.80;;;7.32;;
80411;SDS011;69749;42.684;23.360;2023-07-24T07:28:56;10.93;;;7.45;;
80411;SDS011;69749;42.684;23.360;2023-07-24T07:31:21;11.85;;;7.65;;
80411;SDS011;69749;42.684;23.360;2023-07-24T07:33:47;10.70;;;7.40;;
80411;SDS011;69749;42.684;23.360;2023-07-24T07:36:13;12.18;;;7.20;;
80411;SDS011;69749;42.684;23.360;2023-07-24T07:38:39;11.05;;;7.03;;
80411;SDS011;69749;42.684;23.360;2023-07-24T07:41:05;11.80;;;7.65;;
80411;SDS011;69749;42.684;23.360;2023-07-24T07:43:31;13.13;;;7.97;;
80411;SDS011;69749;42.684;23.360;2023-07-24T07:45:56;16.52;;;8.32;;
80411;SDS011;69749;42.684;23.360;2023-07-24T07:48:23;13.70;;;8.35;;
80411;SDS011;69749;42.684;23.360;2023-07-24T07:50:51;11.15;;;8.45;;
80411;SDS011;69749;42.684;23.360;2023-07-24T07:53:17;13.95;;;8.30;;
80411;SDS011;69749;42.684;23.360;2023-07-24T07:55:42;11.07;;;7.68;;
80411;SDS011;69749;42.684;23.360;2023-07-24T07:58:08;18.02;;;8.45;;
80411;SDS011;69749;42.684;23.360;2023-07-24T08:00:34;11.35;;;7.72;;
80411;SDS011;69749;42.684;23.360;2023-07-24T08:02:59;12.52;;;8.35;;
80411;SDS011;69749;42.684;23.360;2023-07-24T08:05:25;14.75;;;8.85;;
80411;SDS011;69749;42.684;23.360;2023-07-24T08:07:50;13.00;;;8.43;;
80411;SDS011;69749;42.684;23.360;2023-07-24T08:10:15;16.00;;;9.13;;
80411;SDS011;69749;42.684;23.360;2023-07-24T08:12:41;13.48;;;8.35;;
80411;SDS011;69749;42.684;23.360;2023-07-24T08:15:07;12.30;;;7.97;;
80411;SDS011;69749;42.684;23.360;2023-07-24T08:17:33;14.77;;;8.88;;
80411;SDS011;69749;42.684;23.360;2023-07-24T08:19:59;18.30;;;9.35;;
80411;SDS011;69749;42.684;23.360;2023-07-24T08:22:24;12.10;;;7.97;;
80411;SDS011;69749;42.684;23.360;2023-07-24T08:24:49;15.73;;;8.93;;
80411;SDS011;69749;42.684;23.360;2023-07-24T08:29:41;13.80;;;7.90;;
80411;SDS011;69749;42.684;23.360;2023-07-24T08:32:07;13.00;;;8.88;;
80411;SDS011;69749;42.684;23.360;2023-07-24T08:34:32;15.57;;;8.57;;
80411;SDS011;69749;42.684;23.360;2023-07-24T08:36:58;14.38;;;9.30;;
80411;SDS011;69749;42.684;23.360;2023-07-24T08:39:23;13.88;;;9.85;;
80411;SDS011;69749;42.684;23.360;2023-07-24T08:41:49;13.68;;;9.20;;
80411;SDS011;69749;42.684;23.360;2023-07-24T08:44:14;13.85;;;9.77;;
80411;SDS011;69749;42.684;23.360;2023-07-24T08:46:41;15.57;;;9.65;;
80411;SDS011;69749;42.684;23.360;2023-07-24T08:49:13;17.05;;;9.00;;
80411;SDS011;69749;42.684;23.360;2023-07-24T08:51:42;14.77;;;9.18;;
80411;SDS011;69749;42.684;23.360;2023-07-24T08:54:09;15.38;;;8.85;;
80411;SDS011;69749;42.684;23.360;2023-07-24T08:56:36;10.55;;;7.60;;
80411;SDS011;69749;42.684;23.360;2023-07-24T08:59:03;14.43;;;8.48;;
80411;SDS011;69749;42.684;23.360;2023-07-24T09:01:28;13.73;;;9.48;;
80411;SDS011;69749;42.684;23.360;2023-07-24T09:03:53;16.25;;;8.95;;
80411;SDS011;69749;42.684;23.360;2023-07-24T09:06:19;14.40;;;8.32;;
80411;SDS011;69749;42.684;23.360;2023-07-24T09:08:44;16.00;;;8.95;;
80411;SDS011;69749;42.684;23.360;2023-07-24T09:11:10;14.52;;;9.80;;
80411;SDS011;69749;42.684;23.360;2023-07-24T09:13:40;18.50;;;9.38;;
80411;SDS011;69749;42.684;23.360;2023-07-24T09:16:07;14.85;;;10.05;;
80411;SDS011;69749;42.684;23.360;2023-07-24T09:18:39;15.55;;;9.60;;
80411;SDS011;69749;42.684;23.360;2023-07-24T09:21:06;16.23;;;9.55;;
80411;SDS011;69749;42.684;23.360;2023-07-24T09:23:31;14.55;;;8.43;;
80411;SDS011;69749;42.684;23.360;2023-07-24T09:25:57;16.88;;;9.50;;
80411;SDS011;69749;42.684;23.360;2023-07-24T09:28:23;15.55;;;10.00;;
80411;SDS011;69749;42.684;23.360;2023-07-24T09:30:53;16.92;;;10.00;;
80411;SDS011;69749;42.684;23.360;2023-07-24T09:33:20;21.25;;;10.13;;
80411;SDS011;69749;42.684;23.360;2023-07-24T09:36:07;22.08;;;10.02;;
80411;SDS011;69749;42.684;23.360;2023-07-24T09:38:34;14.52;;;9.60;;
80411;SDS011;69749;42.684;23.360;2023-07-24T09:41:03;19.65;;;10.30;;
80411;SDS011;69749;42.684;23.360;2023-07-24T09:43:30;16.30;;;9.68;;
80411;SDS011;69749;42.684;23.360;2023-07-24T09:45:56;16.67;;;9.85;;
80411;SDS011;69749;42.684;23.360;2023-07-24T09:48:23;18.25;;;10.35;;
80411;SDS011;69749;42.684;23.360;2023-07-24T09:50:52;15.95;;;9.30;;
80411;SDS011;69749;42.684;23.360;2023-07-24T09:56:01;17.00;;;9.98;;
80411;SDS011;69749;42.684;23.360;2023-07-24T09:58:29;16.48;;;9.70;;
80411;SDS011;69749;42.684;23.360;2023-07-24T10:00:54;17.80;;;10.13;;
80411;SDS011;69749;42.684;23.360;2023-07-24T10:03:21;18.25;;;10.05;;
80411;SDS011;69749;42.684;23.360;2023-07-24T10:08:17;13.57;;;9.30;;
80411;SDS011;69749;42.684;23.360;2023-07-24T10:10:43;16.75;;;9.77;;
80411;SDS011;69749;42.684;23.360;2023-07-24T10:15:37;16.38;;;9.80;;
80411;SDS011;69749;42.684;23.360;2023-07-24T10:18:04;18.48;;;10.35;;
80411;SDS011;69749;42.684;23.360;2023-07-24T10:20:35;22.27;;;9.75;;
80411;SDS011;69749;42.684;23.360;2023-07-24T10:23:02;18.20;;;10.25;;
80411;SDS011;69749;42.684;23.360;2023-07-24T10:25:29;15.40;;;9.55;;
80411;SDS011;69749;42.684;23.360;2023-07-24T10:28:17;20.23;;;10.32;;
80411;SDS011;69749;42.684;23.360;2023-07-24T10:30:43;17.75;;;9.65;;
80411;SDS011;69749;42.684;23.360;2023-07-24T10:33:13;18.58;;;10.27;;
80411;SDS011;69749;42.684;23.360;2023-07-24T10:35:46;17.83;;;10.13;;
80411;SDS011;69749;42.684;23.360;2023-07-24T10:38:15;18.48;;;9.10;;
80411;SDS011;69749;42.684;23.360;2023-07-24T10:40:41;17.60;;;10.15;;
80411;SDS011;69749;42.684;23.360;2023-07-24T10:43:09;17.77;;;10.32;;
80411;SDS011;69749;42.684;23.360;2023-07-24T10:48:11;17.67;;;9.65;;
80411;SDS011;69749;42.684;23.360;2023-07-24T10:50:38;18.00;;;9.82;;
80411;SDS011;69749;42.684;23.360;2023-07-24T10:53:04;25.67;;;11.68;;
80411;SDS011;69749;42.684;23.360;2023-07-24T10:55:30;17.40;;;10.18;;
80411;SDS011;69749;42.684;23.360;2023-07-24T10:57:55;21.70;;;10.10;;
80411;SDS011;69749;42.684;23.360;2023-07-24T11:00:20;16.70;;;8.70;;
80411;SDS011;69749;42.684;23.360;2023-07-24T11:02:46;18.77;;;9.75;;
80411;SDS011;69749;42.684;23.360;2023-07-24T11:05:12;14.65;;;9.23;;
80411;SDS011;69749;42.684;23.360;2023-07-24T11:07:38;16.48;;;9.45;;
80411;SDS011;69749;42.684;23.360;2023-07-24T11:10:13;15.75;;;9.35;;
80411;SDS011;69749;42.684;23.360;2023-07-24T11:12:42;19.17;;;9.80;;
80411;SDS011;69749;42.684;23.360;2023-07-24T11:15:09;19.85;;;8.93;;
80411;SDS011;69749;42.684;23.360;2023-07-24T11:17:38;13.57;;;7.88;;
80411;SDS011;69749;42.684;23.360;2023-07-24T11:20:07;13.48;;;6.60;;
80411;SDS011;69749;42.684;23.360;2023-07-24T11:22:38;15.15;;;7.70;;
80411;SDS011;69749;42.684;23.360;2023-07-24T11:25:09;13.25;;;7.25;;
80411;SDS011;69749;42.684;23.360;2023-07-24T11:27:40;12.93;;;6.80;;
80411;SDS011;69749;42.684;23.360;2023-07-24T11:30:09;12.40;;;7.43;;
80411;SDS011;69749;42.684;23.360;2023-07-24T11:32:35;16.35;;;9.43;;
80411;SDS011;69749;42.684;23.360;2023-07-24T11:35:03;15.88;;;8.45;;
80411;SDS011;69749;42.684;23.360;2023-07-24T11:37:29;15.50;;;8.38;;
80411;SDS011;69749;42.684;23.360;2023-07-24T11:39:56;18.13;;;9.00;;
80411;SDS011;69749;42.684;23.360;2023-07-24T11:42:26;14.50;;;7.20;;
80411;SDS011;69749;42.684;23.360;2023-07-24T11:44:52;13.18;;;7.70;;
80411;SDS011;69749;42.684;23.360;2023-07-24T11:47:18;15.15;;;8.45;;
80411;SDS011;69749;42.684;23.360;2023-07-24T11:49:44;13.88;;;7.72;;
80411;SDS011;69749;42.684;23.360;2023-07-24T11:52:13;15.55;;;8.02;;
80411;SDS011;69749;42.684;23.360;2023-07-24T11:54:39;15.82;;;8.15;;
80411;SDS011;69749;42.684;23.360;2023-07-24T11:57:14;13.25;;;7.72;;
80411;SDS011;69749;42.684;23.360;2023-07-24T11:59:41;13.77;;;8.30;;
80411;SDS011;69749;42.684;23.360;2023-07-24T12:02:08;15.50;;;8.48;;
80411;SDS011;69749;42.684;23.360;2023-07-24T12:04:35;18.70;;;8.63;;
80411;SDS011;69749;42.684;23.360;2023-07-24T12:07:01;13.25;;;7.13;;
80411;SDS011;69749;42.684;23.360;2023-07-24T12:09:29;15.48;;;7.85;;
80411;SDS011;69749;42.684;23.360;2023-07-24T12:11:57;11.35;;;7.93;;
80411;SDS011;69749;42.684;23.360;2023-07-24T12:14:23;15.80;;;8.32;;
80411;SDS011;69749;42.684;23.360;2023-07-24T12:16:49;16.73;;;8.32;;
80411;SDS011;69749;42.684;23.360;2023-07-24T12:19:15;14.85;;;8.05;;
80411;SDS011;69749;42.684;23.360;2023-07-24T12:21:40;13.32;;;8.68;;
80411;SDS011;69749;42.684;23.360;2023-07-24T12:24:05;12.55;;;8.02;;
80411;SDS011;69749;42.684;23.360;2023-07-24T12:26:31;14.70;;;7.80;;
80411;SDS011;69749;42.684;23.360;2023-07-24T12:28:56;15.63;;;8.00;;
80411;SDS011;69749;42.684;23.360;2023-07-24T12:31:22;15.45;;;8.20;;
80411;SDS011;69749;42.684;23.360;2023-07-24T12:33:48;13.95;;;7.85;;
80411;SDS011;69749;42.684;23.360;2023-07-24T12:36:13;16.60;;;7.53;;
80411;SDS011;69749;42.684;23.360;2023-07-24T12:38:39;12.25;;;7.53;;
80411;SDS011;69749;42.684;23.360;2023-07-24T12:41:04;13.48;;;7.38;;
80411;SDS011;69749;42.684;23.360;2023-07-24T12:43:29;15.32;;;8.25;;
80411;SDS011;69749;42.684;23.360;2023-07-24T12:45:55;12.95;;;8.15;;
80411;SDS011;69749;42.684;23.360;2023-07-24T12:48:20;14.10;;;7.78;;
80411;SDS011;69749;42.684;23.360;2023-07-24T12:50:46;16.23;;;8.32;;
80411;SDS011;69749;42.684;23.360;2023-07-24T12:53:11;17.02;;;8.05;;
80411;SDS011;69749;42.684;23.360;2023-07-24T12:55:36;11.60;;;7.90;;
80411;SDS011;69749;42.684;23.360;2023-07-24T12:58:02;13.27;;;8.07;;
80411;SDS011;69749;42.684;23.360;2023-07-24T13:00:28;18.55;;;8.63;;
80411;SDS011;69749;42.684;23.360;2023-07-24T13:02:54;13.88;;;7.55;;
80411;SDS011;69749;42.684;23.360;2023-07-24T13:05:20;17.00;;;8.95;;
80411;SDS011;69749;42.684;23.360;2023-07-24T13:07:45;16.05;;;7.95;;
80411;SDS011;69749;42.684;23.360;2023-07-24T13:10:11;13.82;;;8.70;;
80411;SDS011;69749;42.684;23.360;2023-07-24T13:12:36;14.32;;;7.90;;
80411;SDS011;69749;42.684;23.360;2023-07-24T13:15:02;12.43;;;7.80;;
80411;SDS011;69749;42.684;23.360;2023-07-24T13:17:28;14.95;;;7.68;;
80411;SDS011;69749;42.684;23.360;2023-07-24T13:22:19;14.25;;;8.32;;
80411;SDS011;69749;42.684;23.360;2023-07-24T13:24:45;12.98;;;7.75;;
80411;SDS011;69749;42.684;23.360;2023-07-24T13:27:10;14.68;;;8.38;;
80411;SDS011;69749;42.684;23.360;2023-07-24T13:29:35;12.80;;;8.07;;
80411;SDS011;69749;42.684;23.360;2023-07-24T13:32:01;13.13;;;8.10;;
80411;SDS011;69749;42.684;23.360;2023-07-24T13:34:26;13.00;;;8.65;;
80411;SDS011;69749;42.684;23.360;2023-07-24T13:36:52;17.60;;;8.30;;
80411;SDS011;69749;42.684;23.360;2023-07-24T13:39:17;12.65;;;7.95;;
80411;SDS011;69749;42.684;23.360;2023-07-24T13:41:42;14.05;;;8.15;;
80411;SDS011;69749;42.684;23.360;2023-07-24T13:44:08;11.70;;;8.13;;
80411;SDS011;69749;42.684;23.360;2023-07-24T13:49:00;15.30;;;8.85;;
80411;SDS011;69749;42.684;23.360;2023-07-24T13:51:25;17.23;;;8.73;;
80411;SDS011;69749;42.684;23.360;2023-07-24T13:53:50;13.95;;;8.70;;
80411;SDS011;69749;42.684;23.360;2023-07-24T13:56:17;13.85;;;8.70;;
80411;SDS011;69749;42.684;23.360;2023-07-24T13:58:43;14.00;;;8.30;;
80411;SDS011;69749;42.684;23.360;2023-07-24T14:01:09;14.95;;;8.25;;
80411;SDS011;69749;42.684;23.360;2023-07-24T14:03:35;13.52;;;7.95;;
80411;SDS011;69749;42.684;23.360;2023-07-24T14:06:00;14.35;;;7.82;;
80411;SDS011;69749;42.684;23.360;2023-07-24T14:08:26;15.82;;;8.48;;
80411;SDS011;69749;42.684;23.360;2023-07-24T14:10:51;14.20;;;8.60;;
80411;SDS011;69749;42.684;23.360;2023-07-24T14:13:17;13.40;;;8.55;;
80411;SDS011;69749;42.684;23.360;2023-07-24T14:15:42;11.80;;;7.80;;
80411;SDS011;69749;42.684;23.360;2023-07-24T14:18:08;15.25;;;8.82;;
80411;SDS011;69749;42.684;23.360;2023-07-24T14:20:33;14.88;;;9.80;;
80411;SDS011;69749;42.684;23.360;2023-07-24T14:22:59;12.75;;;8.65;;
80411;SDS011;69749;42.684;23.360;2023-07-24T14:25:24;13.65;;;9.05;;
80411;SDS011;69749;42.684;23.360;2023-07-24T14:27:50;14.98;;;8.80;;
80411;SDS011;69749;42.684;23.360;2023-07-24T14:30:15;15.55;;;9.15;;
80411;SDS011;69749;42.684;23.360;2023-07-24T14:32:41;15.70;;;9.75;;
80411;SDS011;69749;42.684;23.360;2023-07-24T14:35:06;19.10;;;8.98;;
80411;SDS011;69749;42.684;23.360;2023-07-24T14:37:32;12.55;;;8.23;;
80411;SDS011;69749;42.684;23.360;2023-07-24T14:39:57;13.75;;;8.52;;
80411;SDS011;69749;42.684;23.360;2023-07-24T14:42:23;14.35;;;8.60;;
80411;SDS011;69749;42.684;23.360;2023-07-24T14:44:48;15.95;;;8.93;;